sensor_id;sensor_type;location;lat;lon;timestamp;pressure;altitude;pressure_sealevel;temperature;humidity
27144;BME280;14672;50.250;8.312;2022-12-18T00:01:32;100118.22;;;-5.43;54.33
27144;BME280;14672;50.250;8.312;2022-12-18T00:04:00;100109.41;;;-5.45;54.72
27144;BME280;14672;50.250;8.312;2022-12-18T00:06:28;100123.41;;;-5.50;54.67
27144;BME280;14672;50.250;8.312;2022-12-18T00:08:57;100120.00;;;-5.47;54.36
27144;BME280;14672;50.250;8.312;2022-12-18T00:11:27;100114.28;;;-5.51;54.46
27144;BME280;14672;50.250;8.312;2022-12-18T00:13:56;100109.88;;;-5.52;53.78
27144;BME280;14672;50.250;8.312;2022-12-18T00:16:24;100110.53;;;-5.55;53.88
27144;BME280;14672;50.250;8.312;2022-12-18T00:18:53;100110.88;;;-5.48;54.10
27144;BME280;14672;50.250;8.312;2022-12-18T00:21:20;100103.34;;;-5.56;54.85
27144;BME280;14672;50.250;8.312;2022-12-18T00:23:48;100115.25;;;-5.55;55.35
27144;BME280;14672;50.250;8.312;2022-12-18T00:26:24;100123.41;;;-5.50;54.91
27144;BME280;14672;50.250;8.312;2022-12-18T00:28:51;100109.41;;;-5.45;55.10
27144;BME280;14672;50.250;8.312;2022-12-18T00:31:22;100111.19;;;-5.41;55.50
27144;BME280;14672;50.250;8.312;2022-12-18T00:33:48;100101.91;;;-5.53;55.64
27144;BME280;14672;50.250;8.312;2022-12-18T00:36:20;100103.03;;;-5.54;55.92
27144;BME280;14672;50.250;8.312;2022-12-18T00:38:46;100107.75;;;-5.55;55.47
27144;BME280;14672;50.250;8.312;2022-12-18T00:41:15;100102.03;;;-5.67;54.98
27144;BME280;14672;50.250;8.312;2022-12-18T00:44:05;100107.66;;;-5.81;55.38
27144;BME280;14672;50.250;8.312;2022-12-18T00:46:32;100105.59;;;-5.75;55.93
27144;BME280;14672;50.250;8.312;2022-12-18T00:48:58;100116.34;;;-5.74;56.11
27144;BME280;14672;50.250;8.312;2022-12-18T00:51:24;100115.56;;;-5.65;55.55
27144;BME280;14672;50.250;8.312;2022-12-18T00:53:50;100118.78;;;-5.72;55.17
27144;BME280;14672;50.250;8.312;2022-12-18T00:56:16;100123.66;;;-5.69;54.75
27144;BME280;14672;50.250;8.312;2022-12-18T00:58:42;100119.38;;;-5.84;54.34
27144;BME280;14672;50.250;8.312;2022-12-18T01:01:08;100122.97;;;-5.83;54.52
27144;BME280;14672;50.250;8.312;2022-12-18T01:03:34;100128.69;;;-5.80;54.30
27144;BME280;14672;50.250;8.312;2022-12-18T01:06:10;100123.44;;;-5.81;53.49
27144;BME280;14672;50.250;8.312;2022-12-18T01:08:37;100121.38;;;-5.76;54.23
27144;BME280;14672;50.250;8.312;2022-12-18T01:11:16;100126.56;;;-5.83;53.99
27144;BME280;14672;50.250;8.312;2022-12-18T01:13:43;100125.09;;;-5.89;54.25
27144;BME280;14672;50.250;8.312;2022-12-18T01:16:12;100136.78;;;-5.92;53.91
27144;BME280;14672;50.250;8.312;2022-12-18T01:18:38;100133.38;;;-5.89;54.05
27144;BME280;14672;50.250;8.312;2022-12-18T01:21:10;100137.75;;;-5.96;53.16
27144;BME280;14672;50.250;8.312;2022-12-18T01:23:37;100138.09;;;-5.98;53.70
27144;BME280;14672;50.250;8.312;2022-12-18T01:26:13;100135.94;;;-6.01;53.41
27144;BME280;14672;50.250;8.312;2022-12-18T01:28:40;100142.47;;;-5.97;53.38
27144;BME280;14672;50.250;8.312;2022-12-18T01:31:28;100151.34;;;-6.08;53.34
27144;BME280;14672;50.250;8.312;2022-12-18T01:33:56;100156.56;;;-6.07;53.21
27144;BME280;14672;50.250;8.312;2022-12-18T01:36:34;100149.47;;;-5.99;53.27
27144;BME280;14672;50.250;8.312;2022-12-18T01:39:05;100138.16;;;-6.11;53.54
27144;BME280;14672;50.250;8.312;2022-12-18T01:41:33;100132.75;;;-6.17;53.73
27144;BME280;14672;50.250;8.312;2022-12-18T01:45:02;100126.44;;;-6.17;53.39
27144;BME280;14672;50.250;8.312;2022-12-18T01:47:46;100142.38;;;-6.14;53.17
27144;BME280;14672;50.250;8.312;2022-12-18T01:50:21;100136.75;;;-6.31;53.57
27144;BME280;14672;50.250;8.312;2022-12-18T01:53:00;100135.69;;;-6.22;53.74
27144;BME280;14672;50.250;8.312;2022-12-18T01:55:31;100136.63;;;-6.26;53.72
27144;BME280;14672;50.250;8.312;2022-12-18T01:58:00;100127.69;;;-6.23;52.72
27144;BME280;14672;50.250;8.312;2022-12-18T02:00:27;100124.88;;;-6.32;53.29
27144;BME280;14672;50.250;8.312;2022-12-18T02:02:54;100123.56;;;-6.34;53.10
27144;BME280;14672;50.250;8.312;2022-12-18T02:05:48;100135.75;;;-6.35;52.74
27144;BME280;14672;50.250;8.312;2022-12-18T02:08:26;100131.22;;;-6.31;53.12
27144;BME280;14672;50.250;8.312;2022-12-18T02:11:39;100126.81;;;-6.32;53.15
27144;BME280;14672;50.250;8.312;2022-12-18T02:14:42;100118.03;;;-6.34;53.29
27144;BME280;14672;50.250;8.312;2022-12-18T02:20:01;100109.38;;;-6.41;53.24
27144;BME280;14672;50.250;8.312;2022-12-18T02:28:36;100100.22;;;-6.50;52.80
27144;BME280;14672;50.250;8.312;2022-12-18T02:31:08;100105.22;;;-6.52;53.50
27144;BME280;14672;50.250;8.312;2022-12-18T02:33:37;100110.28;;;-6.54;52.79
27144;BME280;14672;50.250;8.312;2022-12-18T02:36:06;100104.22;;;-6.56;52.82
27144;BME280;14672;50.250;8.312;2022-12-18T02:38:33;100106.56;;;-6.50;53.32
27144;BME280;14672;50.250;8.312;2022-12-18T02:41:00;100104.09;;;-6.51;53.32
27144;BME280;14672;50.250;8.312;2022-12-18T02:43:27;100100.84;;;-6.53;52.69
27144;BME280;14672;50.250;8.312;2022-12-18T02:45:59;100098.09;;;-6.53;52.89
27144;BME280;14672;50.250;8.312;2022-12-18T02:48:32;100098.75;;;-6.48;52.55
27144;BME280;14672;50.250;8.312;2022-12-18T02:51:17;100112.28;;;-6.46;52.71
27144;BME280;14672;50.250;8.312;2022-12-18T02:56:55;100127.91;;;-6.64;52.65
27144;BME280;14672;50.250;8.312;2022-12-18T02:59:56;100126.72;;;-6.49;52.42
27144;BME280;14672;50.250;8.312;2022-12-18T03:03:06;100110.47;;;-6.51;53.02
27144;BME280;14672;50.250;8.312;2022-12-18T03:05:52;100114.63;;;-6.62;53.66
27144;BME280;14672;50.250;8.312;2022-12-18T03:08:27;100129.31;;;-6.53;53.13
27144;BME280;14672;50.250;8.312;2022-12-18T03:11:06;100129.09;;;-6.56;53.24
27144;BME280;14672;50.250;8.312;2022-12-18T03:13:50;100121.78;;;-6.61;53.12
27144;BME280;14672;50.250;8.312;2022-12-18T03:16:25;100119.31;;;-6.62;52.73
27144;BME280;14672;50.250;8.312;2022-12-18T03:19:00;100121.31;;;-6.54;52.32
27144;BME280;14672;50.250;8.312;2022-12-18T03:21:37;100117.88;;;-6.60;52.70
27144;BME280;14672;50.250;8.312;2022-12-18T03:24:07;100122.38;;;-6.64;53.11
27144;BME280;14672;50.250;8.312;2022-12-18T03:26:35;100103.75;;;-6.58;52.72
27144;BME280;14672;50.250;8.312;2022-12-18T03:29:08;100089.81;;;-6.53;52.99
27144;BME280;14672;50.250;8.312;2022-12-18T03:31:40;100108.63;;;-6.55;52.30
27144;BME280;14672;50.250;8.312;2022-12-18T03:34:21;100113.78;;;-6.62;52.38
27144;BME280;14672;50.250;8.312;2022-12-18T03:36:49;100104.31;;;-6.70;52.63
27144;BME280;14672;50.250;8.312;2022-12-18T03:39:15;100107.50;;;-6.77;52.45
27144;BME280;14672;50.250;8.312;2022-12-18T03:47:30;100091.56;;;-6.80;53.00
27144;BME280;14672;50.250;8.312;2022-12-18T03:55:32;100095.66;;;-6.77;52.56
27144;BME280;14672;50.250;8.312;2022-12-18T03:58:01;100103.25;;;-6.83;52.54
27144;BME280;14672;50.250;8.312;2022-12-18T04:00:29;100091.06;;;-6.82;52.63
27144;BME280;14672;50.250;8.312;2022-12-18T04:02:57;100096.00;;;-6.92;52.48
27144;BME280;14672;50.250;8.312;2022-12-18T04:05:27;100082.94;;;-7.00;52.40
27144;BME280;14672;50.250;8.312;2022-12-18T04:07:55;100077.91;;;-6.85;52.42
27144;BME280;14672;50.250;8.312;2022-12-18T04:10:22;100076.38;;;-6.91;52.82
27144;BME280;14672;50.250;8.312;2022-12-18T04:12:48;100086.31;;;-6.90;52.70
27144;BME280;14672;50.250;8.312;2022-12-18T04:15:14;100090.19;;;-6.91;52.28
27144;BME280;14672;50.250;8.312;2022-12-18T04:17:47;100086.31;;;-6.90;52.26
27144;BME280;14672;50.250;8.312;2022-12-18T04:20:14;100083.22;;;-6.88;52.41
27144;BME280;14672;50.250;8.312;2022-12-18T04:22:41;100080.44;;;-6.88;53.20
27144;BME280;14672;50.250;8.312;2022-12-18T04:25:07;100078.38;;;-6.83;52.95
27144;BME280;14672;50.250;8.312;2022-12-18T04:27:36;100080.97;;;-6.86;52.15
27144;BME280;14672;50.250;8.312;2022-12-18T04:30:03;100074.63;;;-6.87;52.30
27144;BME280;14672;50.250;8.312;2022-12-18T04:32:28;100069.41;;;-6.88;52.75
27144;BME280;14672;50.250;8.312;2022-12-18T04:34:54;100066.41;;;-6.78;52.99
27144;BME280;14672;50.250;8.312;2022-12-18T04:37:20;100054.16;;;-6.86;52.74
27144;BME280;14672;50.250;8.312;2022-12-18T04:39:46;100064.50;;;-6.91;52.22
27144;BME280;14672;50.250;8.312;2022-12-18T04:42:12;100055.78;;;-6.85;52.16
27144;BME280;14672;50.250;8.312;2022-12-18T04:44:37;100065.13;;;-6.94;52.44
27144;BME280;14672;50.250;8.312;2022-12-18T04:47:03;100060.44;;;-6.94;52.34
27144;BME280;14672;50.250;8.312;2022-12-18T04:49:29;100064.63;;;-6.96;52.32
27144;BME280;14672;50.250;8.312;2022-12-18T04:51:55;100066.19;;;-7.04;52.49
27144;BME280;14672;50.250;8.312;2022-12-18T04:54:20;100070.97;;;-6.96;52.33
27144;BME280;14672;50.250;8.312;2022-12-18T04:56:47;100063.09;;;-6.89;52.12
27144;BME280;14672;50.250;8.312;2022-12-18T04:59:12;100062.69;;;-6.96;52.35
27144;BME280;14672;50.250;8.312;2022-12-18T05:01:38;100062.38;;;-6.94;52.36
27144;BME280;14672;50.250;8.312;2022-12-18T05:04:04;100068.78;;;-6.85;52.70
27144;BME280;14672;50.250;8.312;2022-12-18T05:06:30;100078.75;;;-6.98;52.91
27144;BME280;14672;50.250;8.312;2022-12-18T05:08:56;100077.91;;;-6.85;53.23
27144;BME280;14672;50.250;8.312;2022-12-18T05:11:22;100085.41;;;-6.77;52.62
27144;BME280;14672;50.250;8.312;2022-12-18T05:13:48;100080.50;;;-6.80;53.23
27144;BME280;14672;50.250;8.312;2022-12-18T05:16:14;100080.66;;;-6.85;53.36
27144;BME280;14672;50.250;8.312;2022-12-18T05:18:41;100080.50;;;-6.80;52.92
27144;BME280;14672;50.250;8.312;2022-12-18T05:21:06;100093.47;;;-6.89;52.84
27144;BME280;14672;50.250;8.312;2022-12-18T05:23:36;100090.91;;;-6.77;53.22
27144;BME280;14672;50.250;8.312;2022-12-18T05:26:05;100091.56;;;-6.80;53.73
27144;BME280;14672;50.250;8.312;2022-12-18T05:28:34;100083.91;;;-6.83;53.29
27144;BME280;14672;50.250;8.312;2022-12-18T05:31:02;100091.38;;;-6.83;53.66
27144;BME280;14672;50.250;8.312;2022-12-18T05:33:34;100089.50;;;-6.74;53.47
27144;BME280;14672;50.250;8.312;2022-12-18T05:36:06;100080.44;;;-6.88;53.94
27144;BME280;14672;50.250;8.312;2022-12-18T05:38:35;100076.94;;;-6.80;53.76
27144;BME280;14672;50.250;8.312;2022-12-18T05:41:02;100071.91;;;-6.78;53.57
27144;BME280;14672;50.250;8.312;2022-12-18T05:43:28;100065.44;;;-6.74;53.60
27144;BME280;14672;50.250;8.312;2022-12-18T05:45:55;100057.97;;;-6.73;53.55
27144;BME280;14672;50.250;8.312;2022-12-18T05:48:22;100064.44;;;-6.78;53.56
27144;BME280;14672;50.250;8.312;2022-12-18T05:50:49;100052.47;;;-6.73;53.56
27144;BME280;14672;50.250;8.312;2022-12-18T05:53:19;100055.66;;;-6.80;53.17
27144;BME280;14672;50.250;8.312;2022-12-18T05:55:47;100068.63;;;-6.80;53.49
27144;BME280;14672;50.250;8.312;2022-12-18T05:58:14;100071.09;;;-6.79;53.12
27144;BME280;14672;50.250;8.312;2022-12-18T06:00:44;100074.63;;;-6.87;52.63
27144;BME280;14672;50.250;8.312;2022-12-18T06:03:11;100068.28;;;-6.87;52.86
27144;BME280;14672;50.250;8.312;2022-12-18T06:05:43;100072.97;;;-6.88;52.95
27144;BME280;14672;50.250;8.312;2022-12-18T06:08:10;100062.81;;;-6.79;53.90
27144;BME280;14672;50.250;8.312;2022-12-18T06:10:37;100070.47;;;-6.76;53.51
27144;BME280;14672;50.250;8.312;2022-12-18T06:13:03;100066.56;;;-6.75;53.92
27144;BME280;14672;50.250;8.312;2022-12-18T06:15:29;100074.56;;;-6.73;54.24
27144;BME280;14672;50.250;8.312;2022-12-18T06:17:55;100074.88;;;-6.75;53.99
27144;BME280;14672;50.250;8.312;2022-12-18T06:20:21;100076.63;;;-6.79;53.30
27144;BME280;14672;50.250;8.312;2022-12-18T06:22:47;100070.34;;;-6.71;53.76
27144;BME280;14672;50.250;8.312;2022-12-18T06:25:13;100081.28;;;-6.66;53.61
27144;BME280;14672;50.250;8.312;2022-12-18T06:27:39;100074.59;;;-6.65;53.27
27144;BME280;14672;50.250;8.312;2022-12-18T06:30:06;100091.44;;;-6.75;53.54
27144;BME280;14672;50.250;8.312;2022-12-18T06:32:32;100093.19;;;-6.79;53.74
27144;BME280;14672;50.250;8.312;2022-12-18T06:34:59;100085.91;;;-6.75;53.36
27144;BME280;14672;50.250;8.312;2022-12-18T06:37:24;100090.69;;;-6.67;53.16
27144;BME280;14672;50.250;8.312;2022-12-18T06:39:55;100088.03;;;-6.72;53.32
27144;BME280;14672;50.250;8.312;2022-12-18T06:42:22;100090.69;;;-6.67;53.51
27144;BME280;14672;50.250;8.312;2022-12-18T06:44:48;100092.63;;;-6.67;53.05
27144;BME280;14672;50.250;8.312;2022-12-18T06:47:14;100095.22;;;-6.71;53.92
27144;BME280;14672;50.250;8.312;2022-12-18T06:49:40;100102.56;;;-6.66;54.01
27144;BME280;14672;50.250;8.312;2022-12-18T06:52:05;100099.28;;;-6.68;53.64
27144;BME280;14672;50.250;8.312;2022-12-18T06:54:31;100098.34;;;-6.63;54.05
27144;BME280;14672;50.250;8.312;2022-12-18T06:56:57;100100.63;;;-6.66;54.16
27144;BME280;14672;50.250;8.312;2022-12-18T06:59:23;100106.75;;;-6.69;53.61
27144;BME280;14672;50.250;8.312;2022-12-18T07:01:48;100106.25;;;-6.71;53.69
27144;BME280;14672;50.250;8.312;2022-12-18T07:04:14;100112.34;;;-6.60;54.36
27144;BME280;14672;50.250;8.312;2022-12-18T07:06:40;100118.44;;;-6.49;54.37
27144;BME280;14672;50.250;8.312;2022-12-18T07:09:06;100119.56;;;-6.50;53.91
27144;BME280;14672;50.250;8.312;2022-12-18T07:11:34;100117.63;;;-6.50;54.27
27144;BME280;14672;50.250;8.312;2022-12-18T07:14:00;100111.00;;;-6.40;54.81
27144;BME280;14672;50.250;8.312;2022-12-18T07:16:26;100115.91;;;-6.37;54.39
27144;BME280;14672;50.250;8.312;2022-12-18T07:18:56;100111.16;;;-6.45;54.62
27144;BME280;14672;50.250;8.312;2022-12-18T07:21:24;100103.84;;;-6.41;54.74
27144;BME280;14672;50.250;8.312;2022-12-18T07:23:50;100094.59;;;-6.37;54.40
27144;BME280;14672;50.250;8.312;2022-12-18T07:26:19;100092.66;;;-6.36;54.66
27144;BME280;14672;50.250;8.312;2022-12-18T07:28:45;100093.16;;;-6.34;55.13
27144;BME280;14672;50.250;8.312;2022-12-18T07:31:16;100085.34;;;-6.32;54.90
27144;BME280;14672;50.250;8.312;2022-12-18T07:33:42;100089.94;;;-6.28;54.64
27144;BME280;14672;50.250;8.312;2022-12-18T07:36:10;100093.97;;;-6.34;55.02
27144;BME280;14672;50.250;8.312;2022-12-18T07:38:36;100094.97;;;-6.30;54.77
27144;BME280;14672;50.250;8.312;2022-12-18T07:41:11;100096.41;;;-6.32;54.10
27144;BME280;14672;50.250;8.312;2022-12-18T07:43:39;100092.38;;;-6.26;53.77
27144;BME280;14672;50.250;8.312;2022-12-18T07:46:06;100088.69;;;-6.22;54.23
27144;BME280;14672;50.250;8.312;2022-12-18T07:48:32;100091.88;;;-6.28;54.28
27144;BME280;14672;50.250;8.312;2022-12-18T07:51:03;100090.88;;;-6.32;54.41
27144;BME280;14672;50.250;8.312;2022-12-18T07:53:30;100090.41;;;-6.34;54.38
27144;BME280;14672;50.250;8.312;2022-12-18T07:55:58;100085.72;;;-6.25;54.35
27144;BME280;14672;50.250;8.312;2022-12-18T07:58:25;100092.38;;;-6.26;53.86
27144;BME280;14672;50.250;8.312;2022-12-18T08:00:51;100087.97;;;-6.27;54.57
27144;BME280;14672;50.250;8.312;2022-12-18T08:03:18;100092.56;;;-6.23;54.38
27144;BME280;14672;50.250;8.312;2022-12-18T08:05:44;100090.34;;;-6.12;54.42
27144;BME280;14672;50.250;8.312;2022-12-18T08:08:10;100085.44;;;-6.15;54.18
27144;BME280;14672;50.250;8.312;2022-12-18T08:10:37;100098.56;;;-6.21;54.10
27144;BME280;14672;50.250;8.312;2022-12-18T08:13:03;100094.72;;;-6.11;54.63
27144;BME280;14672;50.250;8.312;2022-12-18T08:15:29;100092.19;;;-5.99;54.11
27144;BME280;14672;50.250;8.312;2022-12-18T08:17:57;100091.31;;;-6.08;54.59
27144;BME280;14672;50.250;8.312;2022-12-18T08:20:22;100091.06;;;-5.98;54.68
27144;BME280;14672;50.250;8.312;2022-12-18T08:22:48;100097.38;;;-6.06;55.02
27144;BME280;14672;50.250;8.312;2022-12-18T08:25:14;100088.47;;;-5.94;55.63
27144;BME280;14672;50.250;8.312;2022-12-18T08:27:40;100085.53;;;-5.98;55.55
27144;BME280;14672;50.250;8.312;2022-12-18T08:30:06;100079.22;;;-5.90;55.87
27144;BME280;14672;50.250;8.312;2022-12-18T08:32:33;100082.28;;;-5.83;56.69
27144;BME280;14672;50.250;8.312;2022-12-18T08:34:59;100077.09;;;-5.76;55.83
27144;BME280;14672;50.250;8.312;2022-12-18T08:37:25;100069.28;;;-5.74;55.86
27144;BME280;14672;50.250;8.312;2022-12-18T08:39:50;100059.84;;;-5.64;56.17
27144;BME280;14672;50.250;8.312;2022-12-18T08:42:16;100052.22;;;-5.58;56.12
27144;BME280;14672;50.250;8.312;2022-12-18T08:45:02;100049.97;;;-5.39;55.99
27144;BME280;14672;50.250;8.312;2022-12-18T08:47:28;100048.47;;;-5.45;56.61
27144;BME280;14672;50.250;8.312;2022-12-18T08:49:54;100037.25;;;-5.40;56.44
27144;BME280;14672;50.250;8.312;2022-12-18T08:52:20;100043.31;;;-5.30;56.75
27144;BME280;14672;50.250;8.312;2022-12-18T08:54:46;100034.50;;;-5.23;56.55
27144;BME280;14672;50.250;8.312;2022-12-18T08:57:12;100033.53;;;-5.10;56.44
27144;BME280;14672;50.250;8.312;2022-12-18T08:59:37;100023.91;;;-5.04;56.51
27144;BME280;14672;50.250;8.312;2022-12-18T09:02:03;100015.59;;;-5.04;56.77
27144;BME280;14672;50.250;8.312;2022-12-18T09:04:29;100021.78;;;-4.90;56.96
27144;BME280;14672;50.250;8.312;2022-12-18T09:06:56;100033.19;;;-4.83;56.87
27144;BME280;14672;50.250;8.312;2022-12-18T09:09:22;100038.53;;;-4.69;57.08
27144;BME280;14672;50.250;8.312;2022-12-18T09:11:47;100057.25;;;-4.57;57.08
27144;BME280;14672;50.250;8.312;2022-12-18T09:14:13;100050.69;;;-4.44;56.61
27144;BME280;14672;50.250;8.312;2022-12-18T09:16:39;100060.94;;;-4.28;57.06
27144;BME280;14672;50.250;8.312;2022-12-18T09:19:05;100057.84;;;-4.26;57.27
27144;BME280;14672;50.250;8.312;2022-12-18T09:21:34;100058.13;;;-4.19;56.84
27144;BME280;14672;50.250;8.312;2022-12-18T09:24:04;100068.72;;;-4.12;57.01
27144;BME280;14672;50.250;8.312;2022-12-18T09:26:30;100069.97;;;-4.01;57.57
27144;BME280;14672;50.250;8.312;2022-12-18T09:28:56;100066.47;;;-3.90;57.65
27144;BME280;14672;50.250;8.312;2022-12-18T09:31:24;100073.44;;;-3.75;57.51
27144;BME280;14672;50.250;8.312;2022-12-18T09:33:50;100080.94;;;-3.67;57.72
27144;BME280;14672;50.250;8.312;2022-12-18T09:36:17;100075.34;;;-3.58;57.74
27144;BME280;14672;50.250;8.312;2022-12-18T09:38:44;100080.94;;;-3.46;58.20
27144;BME280;14672;50.250;8.312;2022-12-18T09:49:50;100042.94;;;-2.71;61.64
27144;BME280;14672;50.250;8.312;2022-12-18T09:52:45;100053.28;;;-2.15;63.95
27144;BME280;14672;50.250;8.312;2022-12-18T09:55:37;100057.28;;;-1.79;64.54
27144;BME280;14672;50.250;8.312;2022-12-18T09:58:27;100044.03;;;-1.46;64.05
27144;BME280;14672;50.250;8.312;2022-12-18T10:00:54;100058.94;;;-1.14;63.22
27144;BME280;14672;50.250;8.312;2022-12-18T10:03:20;100055.75;;;-0.88;62.42
27144;BME280;14672;50.250;8.312;2022-12-18T10:09:05;100059.34;;;-0.32;61.02
27144;BME280;14672;50.250;8.312;2022-12-18T10:12:23;100050.00;;;0.54;59.44
27144;BME280;14672;50.250;8.312;2022-12-18T10:15:02;100017.91;;;0.83;58.06
27144;BME280;14672;50.250;8.312;2022-12-18T10:18:06;100007.13;;;0.66;57.26
27144;BME280;14672;50.250;8.312;2022-12-18T10:20:46;100004.97;;;1.32;56.41
27144;BME280;14672;50.250;8.312;2022-12-18T10:23:18;100013.06;;;1.18;55.94
27144;BME280;14672;50.250;8.312;2022-12-18T10:26:08;100007.09;;;1.58;55.71
27144;BME280;14672;50.250;8.312;2022-12-18T10:28:39;99997.06;;;1.57;54.76
27144;BME280;14672;50.250;8.312;2022-12-18T10:31:14;100015.31;;;1.70;54.57
27144;BME280;14672;50.250;8.312;2022-12-18T10:33:42;100012.44;;;1.48;54.27
27144;BME280;14672;50.250;8.312;2022-12-18T10:36:09;100019.91;;;1.40;54.04
27144;BME280;14672;50.250;8.312;2022-12-18T10:38:34;100017.69;;;1.49;54.51
27144;BME280;14672;50.250;8.312;2022-12-18T10:41:05;100015.47;;;1.58;53.69
27144;BME280;14672;50.250;8.312;2022-12-18T10:43:36;100035.63;;;1.25;54.35
27144;BME280;14672;50.250;8.312;2022-12-18T10:48:48;100033.38;;;1.54;53.89
27144;BME280;14672;50.250;8.312;2022-12-18T10:51:30;100032.19;;;0.97;54.34
27144;BME280;14672;50.250;8.312;2022-12-18T10:56:34;100017.91;;;1.40;53.25
27144;BME280;14672;50.250;8.312;2022-12-18T10:59:10;100024.13;;;1.11;53.83
27144;BME280;14672;50.250;8.312;2022-12-18T11:02:07;100027.28;;;1.10;54.15
27144;BME280;14672;50.250;8.312;2022-12-18T11:04:51;100041.56;;;1.24;53.38
27144;BME280;14672;50.250;8.312;2022-12-18T11:07:17;100022.28;;;1.38;53.42
27144;BME280;14672;50.250;8.312;2022-12-18T11:09:43;100018.31;;;1.81;52.67
27144;BME280;14672;50.250;8.312;2022-12-18T11:12:19;100013.56;;;1.85;52.10
27144;BME280;14672;50.250;8.312;2022-12-18T11:14:54;100010.91;;;1.92;51.32
27144;BME280;14672;50.250;8.312;2022-12-18T11:17:32;100020.28;;;2.03;51.08
27144;BME280;14672;50.250;8.312;2022-12-18T11:23:11;100013.41;;;2.72;50.55
27144;BME280;14672;50.250;8.312;2022-12-18T11:25:38;100006.81;;;3.17;48.92
27144;BME280;14672;50.250;8.312;2022-12-18T11:28:29;100003.88;;;3.40;48.43
27144;BME280;14672;50.250;8.312;2022-12-18T11:36:46;100001.28;;;3.24;48.25
27144;BME280;14672;50.250;8.312;2022-12-18T11:40:11;100004.44;;;2.90;48.66
27144;BME280;14672;50.250;8.312;2022-12-18T11:43:09;100007.75;;;2.99;48.52
27144;BME280;14672;50.250;8.312;2022-12-18T11:45:53;100015.31;;;2.95;48.45
27144;BME280;14672;50.250;8.312;2022-12-18T11:48:37;100009.53;;;2.80;48.51
27144;BME280;14672;50.250;8.312;2022-12-18T11:51:20;100010.78;;;2.57;49.24
27144;BME280;14672;50.250;8.312;2022-12-18T11:53:51;100018.59;;;2.44;49.38
27144;BME280;14672;50.250;8.312;2022-12-18T11:56:35;100029.69;;;2.63;49.61
27144;BME280;14672;50.250;8.312;2022-12-18T12:02:15;100030.78;;;2.06;50.20
27144;BME280;14672;50.250;8.312;2022-12-18T12:05:00;100017.75;;;1.95;50.98
27144;BME280;14672;50.250;8.312;2022-12-18T12:07:48;100025.25;;;1.68;51.75
27144;BME280;14672;50.250;8.312;2022-12-18T12:17:04;100024.91;;;1.12;52.60
27144;BME280;14672;50.250;8.312;2022-12-18T12:25:44;100012.25;;;0.79;54.26
27144;BME280;14672;50.250;8.312;2022-12-18T12:28:52;100016.19;;;0.59;54.70
27144;BME280;14672;50.250;8.312;2022-12-18T12:34:22;100003.25;;;0.70;54.02
27144;BME280;14672;50.250;8.312;2022-12-18T12:39:43;99995.53;;;0.48;54.51
27144;BME280;14672;50.250;8.312;2022-12-18T12:42:31;99989.78;;;0.41;55.12
27144;BME280;14672;50.250;8.312;2022-12-18T12:45:27;99992.72;;;0.48;55.05
27144;BME280;14672;50.250;8.312;2022-12-18T12:47:55;99998.16;;;0.41;55.13
27144;BME280;14672;50.250;8.312;2022-12-18T12:50:23;99992.22;;;0.42;54.79
27144;BME280;14672;50.250;8.312;2022-12-18T12:52:54;100008.91;;;0.39;54.84
27144;BME280;14672;50.250;8.312;2022-12-18T12:55:28;100014.66;;;0.46;54.65
27144;BME280;14672;50.250;8.312;2022-12-18T12:58:15;100003.22;;;0.51;54.33
27144;BME280;14672;50.250;8.312;2022-12-18T13:01:23;100009.88;;;0.46;54.89
27144;BME280;14672;50.250;8.312;2022-12-18T13:06:30;99999.53;;;0.31;55.02
27144;BME280;14672;50.250;8.312;2022-12-18T13:09:00;100001.69;;;0.38;54.86
27144;BME280;14672;50.250;8.312;2022-12-18T13:14:48;99987.50;;;0.12;55.87
27144;BME280;14672;50.250;8.312;2022-12-18T13:20:13;99982.59;;;0.09;55.71
27144;BME280;14672;50.250;8.312;2022-12-18T13:22:47;99956.84;;;-0.01;55.47
27144;BME280;14672;50.250;8.312;2022-12-18T13:25:33;99957.56;;;-0.19;56.42
27144;BME280;14672;50.250;8.312;2022-12-18T13:43:55;99951.63;;;-0.18;56.45
27144;BME280;14672;50.250;8.312;2022-12-18T13:51:46;99951.81;;;-0.42;57.15
27144;BME280;14672;50.250;8.312;2022-12-18T13:56:54;99954.16;;;-0.44;57.38
27144;BME280;14672;50.250;8.312;2022-12-18T13:59:37;99951.44;;;-0.56;57.76
27144;BME280;14672;50.250;8.312;2022-12-18T14:02:20;99948.59;;;-0.44;57.95
27144;BME280;14672;50.250;8.312;2022-12-18T14:04:50;99949.09;;;-0.54;58.45
27144;BME280;14672;50.250;8.312;2022-12-18T14:07:24;99953.75;;;-0.74;57.96
27144;BME280;14672;50.250;8.312;2022-12-18T14:09:56;99959.00;;;-1.00;58.87
27144;BME280;14672;50.250;8.312;2022-12-18T14:12:26;99963.19;;;-0.78;59.48
27144;BME280;14672;50.250;8.312;2022-12-18T14:17:58;99968.50;;;-0.73;59.07
27144;BME280;14672;50.250;8.312;2022-12-18T14:20:29;99965.47;;;-0.68;58.78
27144;BME280;14672;50.250;8.312;2022-12-18T14:22:58;99963.94;;;-0.66;59.03
27144;BME280;14672;50.250;8.312;2022-12-18T14:25:29;99962.47;;;-0.75;59.01
27144;BME280;14672;50.250;8.312;2022-12-18T14:30:40;99967.34;;;-0.72;58.44
27144;BME280;14672;50.250;8.312;2022-12-18T14:33:15;99963.56;;;-0.80;58.84
27144;BME280;14672;50.250;8.312;2022-12-18T14:36:03;99978.03;;;-0.74;59.06
27144;BME280;14672;50.250;8.312;2022-12-18T14:38:39;99971.97;;;-0.64;58.97
27144;BME280;14672;50.250;8.312;2022-12-18T14:41:11;99967.00;;;-0.55;58.70
27144;BME280;14672;50.250;8.312;2022-12-18T14:43:43;99956.84;;;-0.48;58.71
27144;BME280;14672;50.250;8.312;2022-12-18T14:46:35;99953.88;;;-0.55;58.97
27144;BME280;14672;50.250;8.312;2022-12-18T14:49:31;99955.59;;;-0.50;59.01
27144;BME280;14672;50.250;8.312;2022-12-18T14:52:01;99958.72;;;-0.52;59.13
27144;BME280;14672;50.250;8.312;2022-12-18T14:54:28;99964.22;;;-0.55;58.93
27144;BME280;14672;50.250;8.312;2022-12-18T14:57:01;99954.69;;;-0.54;58.87
27144;BME280;14672;50.250;8.312;2022-12-18T14:59:29;99942.97;;;-0.60;59.25
27144;BME280;14672;50.250;8.312;2022-12-18T15:04:42;99947.78;;;-1.16;61.08
27144;BME280;14672;50.250;8.312;2022-12-18T15:07:23;99943.22;;;-1.08;61.25
27144;BME280;14672;50.250;8.312;2022-12-18T15:12:40;99928.28;;;-1.16;61.20